Norrie, Colorado
Current Conditions -  °F | °C
As of 4:53 PM on Wednesday 26 Nov 2014 (Local Time) from KLXV Reporting Station
Few Clouds Few Clouds  
Wind Chill: 23°   Ceiling: Unl
Heat Index: 28°   Visibility: 10mi
Dew Point: 20°   Wind: 5mph
Humidity: 72%   Direction: NA
Pressure: 30.38"   Gusts: NA
Location:  39.3236°N, 106.55°W
Report Text: KLXV 262353Z AUTO VRB04KT 10SM FEW043 FEW050 M02/M07 A3038 RMK AO2 SLP248 60000 T10221067 10006 21022 53008
Loading
Personal Weather Stations






























Interactive Weather Map New forecast layout! Learn more

10-Day Weather Forecast

Advertisements
Track Severe Weather on mobile